Time;durP1;ratioP1;P1;durP2;ratioP2;P2;SDS_P1;SDS_P2;PMS_P1;PMS_P2;Temp;Humidity;BMP_temperature;BMP_pressure;BME280_temperature;BME280_humidity;BME280_pressure;Samples;Min_cycle;Max_cycle;Signal;HPM_P1;HPM_P2
2021/04/28 00:00:32;;;;;;;23.52;14.63;;;;;;;4.40;57.90;99945.63;1827228;76;21123;-53
2021/04/28 00:03:10;;;;;;;24.10;15.30;;;;;;;4.44;57.87;99939.31;1815301;76;23252;-56
2021/04/28 00:09:08;;;;;;;26.17;14.03;;;;;;;4.42;58.07;99948.26;1745771;79;22669;-54
2021/04/28 00:11:36;;;;;;;22.85;13.28;;;;;;;4.36;58.05;99945.73;1692019;82;21751;-53
2021/04/28 00:14:05;;;;;;;21.37;14.23;;;;;;;4.33;58.13;99947.15;1680841;82;21422;-53
2021/04/28 00:16:33;;;;;;;30.08;14.98;;;;;;;4.32;58.19;99949.41;1680636;84;21060;-54
2021/04/28 00:19:01;;;;;;;23.07;13.72;;;;;;;4.30;58.23;99948.53;1682032;82;21079;-54
2021/04/28 00:21:29;;;;;;;25.35;14.00;;;;;;;4.30;58.34;99948.53;1679222;84;20993;-54
2021/04/28 00:23:57;;;;;;;22.02;14.07;;;;;;;4.28;58.35;99951.70;1676897;84;20989;-53
2021/04/28 00:26:25;;;;;;;26.85;15.70;;;;;;;4.26;58.36;99955.75;1677946;84;21215;-53
2021/04/28 00:28:53;;;;;;;24.57;14.80;;;;;;;4.25;58.44;99953.97;1680469;84;21031;-53
2021/04/28 00:31:21;;;;;;;25.57;13.88;;;;;;;4.24;58.50;99951.34;1682945;84;21036;-54
2021/04/28 00:33:49;;;;;;;24.67;13.90;;;;;;;4.20;58.57;99950.05;1681997;84;21576;-53
2021/04/28 00:36:17;;;;;;;25.60;13.53;;;;;;;4.20;58.63;99956.73;1676279;84;21000;-53
2021/04/28 00:38:45;;;;;;;26.75;14.20;;;;;;;4.18;58.66;99954.56;1677450;84;22288;-54
2021/04/28 00:41:14;;;;;;;27.02;13.72;;;;;;;4.17;58.63;99953.27;1681661;84;21134;-53
2021/04/28 00:43:41;;;;;;;25.48;14.13;;;;;;;4.14;58.63;99948.86;1649935;84;21608;-53
2021/04/28 00:46:10;;;;;;;21.33;12.43;;;;;;;4.13;58.63;99960.45;1678911;84;20993;-52
2021/04/28 00:48:37;;;;;;;23.57;13.03;;;;;;;4.12;58.71;99950.69;1686125;84;21554;-52
2021/04/28 00:51:06;;;;;;;23.50;12.90;;;;;;;4.12;58.69;99957.36;1678705;84;22185;-53
2021/04/28 00:53:35;;;;;;;19.92;11.65;;;;;;;4.11;58.76;99954.28;1683520;84;21035;-51
2021/04/28 00:56:04;;;;;;;24.18;11.65;;;;;;;4.09;58.79;99950.74;1677986;83;21175;-52
2021/04/28 00:58:32;;;;;;;19.30;12.10;;;;;;;4.08;58.71;99954.33;1674807;83;21576;-51
2021/04/28 01:01:00;;;;;;;19.90;11.68;;;;;;;4.08;58.62;99952.99;1679060;84;21565;-53
2021/04/28 01:03:29;;;;;;;20.60;11.73;;;;;;;4.08;58.55;99959.66;1678954;84;22117;-52
2021/04/28 01:06:00;;;;;;;23.27;13.40;;;;;;;4.07;58.56;99961.92;1679264;84;21147;-53
2021/04/28 01:08:30;;;;;;;28.30;13.90;;;;;;;4.06;58.57;99963.29;1667469;84;21033;-53
2021/04/28 01:10:58;;;;;;;25.55;13.32;;;;;;;4.05;58.53;99957.08;1678932;84;21576;-52
2021/04/28 01:13:26;;;;;;;27.50;12.95;;;;;;;4.05;58.42;99962.42;1676988;83;21145;-52
2021/04/28 01:15:54;;;;;;;24.25;12.33;;;;;;;4.04;58.40;99964.63;1674028;84;21386;-53
2021/04/28 01:18:22;;;;;;;22.15;12.73;;;;;;;4.03;58.38;99956.20;1681261;84;21183;-53
2021/04/28 01:20:51;;;;;;;21.07;12.47;;;;;;;4.02;58.28;99960.25;1658041;85;21569;-53
2021/04/28 01:23:21;;;;;;;22.40;12.00;;;;;;;4.01;58.18;99963.37;1671599;84;21017;-52
2021/04/28 01:25:50;;;;;;;24.50;13.60;;;;;;;4.00;58.12;99952.29;1675080;83;26760;-52
2021/04/28 01:28:21;;;;;;;24.18;12.35;;;;;;;3.99;58.06;99957.17;1672536;84;21350;-53
2021/04/28 01:31:06;;;;;;;21.37;11.43;;;;;;;3.98;57.98;99951.42;1673654;83;21021;-52
2021/04/28 01:33:45;;;;;;;20.67;11.03;;;;;;;3.96;57.86;99946.58;1654645;84;21168;-53
2021/04/28 01:36:21;;;;;;;27.82;12.98;;;;;;;3.96;57.71;99961.25;1674837;84;22010;-52
2021/04/28 01:38:53;;;;;;;33.38;14.98;;;;;;;3.96;57.53;99956.37;1660003;85;21609;-53
2021/04/28 01:41:23;;;;;;;34.80;15.80;;;;;;;3.92;57.49;99950.22;1651731;84;21404;-53
2021/04/28 01:43:53;;;;;;;35.97;15.97;;;;;;;3.90;57.49;99958.72;1673716;84;21183;-52
2021/04/28 01:46:27;;;;;;;30.30;14.65;;;;;;;3.89;57.53;99960.97;1621286;84;21029;-52
2021/04/28 01:48:55;;;;;;;36.03;16.77;;;;;;;3.88;57.51;99963.19;1670875;84;21037;-52
2021/04/28 01:51:25;;;;;;;35.40;15.93;;;;;;;3.86;57.49;99961.02;1676106;84;21631;-52
2021/04/28 01:53:53;;;;;;;31.35;16.50;;;;;;;3.86;57.47;99961.02;1660655;85;21418;-52
2021/04/28 01:56:22;;;;;;;35.10;16.42;;;;;;;3.83;57.35;99951.72;1672351;84;21005;-52
2021/04/28 01:59:08;;;;;;;29.18;14.00;;;;;;;3.83;57.21;99965.06;1674530;84;20989;-52
2021/04/28 02:01:54;;;;;;;32.45;14.05;;;;;;;3.88;57.08;99966.73;1832903;76;22805;-53
2021/04/28 02:04:24;;;;;;;31.07;12.88;;;;;;;3.82;57.01;99960.19;1769631;80;21006;-52
2021/04/28 02:06:53;;;;;;;24.18;12.63;;;;;;;3.81;56.95;99965.55;1767310;80;21348;-52
2021/04/28 02:09:21;;;;;;;23.45;11.68;;;;;;;3.81;56.85;99965.55;1796911;79;20990;-53
2021/04/28 02:11:49;;;;;;;23.18;10.60;;;;;;;3.81;56.80;99966.89;1774018;79;20958;-53
2021/04/28 02:14:20;;;;;;;21.90;10.28;;;;;;;3.79;56.75;99951.38;1770407;80;21023;-53
2021/04/28 02:17:03;;;;;;;17.95;9.10;;;;;;;3.84;56.54;99965.52;1791202;76;23344;-53
2021/04/28 02:19:34;;;;;;;14.47;8.97;;;;;;;3.79;56.33;99965.59;1758873;78;20989;-51
2021/04/28 02:22:02;;;;;;;16.75;9.18;;;;;;;3.80;56.18;99966.02;1757796;79;21364;-52
2021/04/28 02:24:46;;;;;;;17.55;9.05;;;;;;;3.84;55.92;99963.72;1817157;76;22778;-51
2021/04/28 02:27:16;;;;;;;17.85;8.88;;;;;;;3.82;55.57;99969.98;1759045;78;20962;-49
2021/04/28 02:29:45;;;;;;;19.73;9.88;;;;;;;3.82;55.35;99972.64;1761593;79;21195;-51
2021/04/28 02:32:13;;;;;;;26.07;9.75;;;;;;;3.83;55.30;99965.06;1763323;79;21681;-51
2021/04/28 02:34:59;;;;;;;15.72;9.15;;;;;;;3.84;55.14;99974.84;1754243;79;21017;-52
2021/04/28 02:37:35;;;;;;;18.05;9.38;;;;;;;3.84;54.98;99981.52;1754790;79;21024;-52
2021/04/28 02:40:21;;;;;;;16.30;8.43;;;;;;;3.84;54.85;99978.84;1754174;80;21700;-53
2021/04/28 02:42:52;;;;;;;18.75;9.50;;;;;;;3.85;54.85;99983.27;1755762;79;21370;-51
2021/04/28 02:45:21;;;;;;;18.12;9.38;;;;;;;3.85;54.90;99981.94;1762334;79;20970;-52
2021/04/28 02:47:51;;;;;;;14.50;8.95;;;;;;;3.85;54.86;99983.27;1743778;79;21017;-53
2021/04/28 02:50:21;;;;;;;12.93;8.43;;;;;;;3.85;54.77;99983.27;1757282;80;21119;-53
2021/04/28 02:53:01;;;;;;;11.95;7.35;;;;;;;3.90;54.69;99984.94;1811082;76;23311;-52
2021/04/28 02:55:30;;;;;;;12.28;7.72;;;;;;;3.87;54.56;99985.44;1783649;78;20985;-53
2021/04/28 02:57:59;;;;;;;13.60;7.53;;;;;;;3.89;54.52;99990.31;1781344;79;22246;-52
2021/04/28 03:00:27;;;;;;;12.68;7.90;;;;;;;3.91;54.37;99988.48;1780892;79;21021;-50
2021/04/28 03:02:56;;;;;;;15.23;7.97;;;;;;;3.92;54.15;99991.11;1779788;79;21025;-52
2021/04/28 03:05:25;;;;;;;17.75;9.33;;;;;;;3.95;54.00;99990.19;1781430;80;21081;-53
2021/04/28 03:08:04;;;;;;;16.87;9.70;;;;;;;3.97;54.01;99988.36;1780562;79;21116;-52
2021/04/28 03:10:32;;;;;;;17.25;9.48;;;;;;;3.97;54.08;99984.81;1780320;79;21573;-52
2021/04/28 03:13:00;;;;;;;18.57;9.18;;;;;;;3.97;53.91;99992.81;1780867;80;21013;-53
2021/04/28 03:15:30;;;;;;;18.48;9.80;;;;;;;3.98;53.75;99992.78;1781436;79;20989;-51
2021/04/28 03:17:59;;;;;;;15.83;9.38;;;;;;;3.98;53.72;99992.78;1750748;80;21115;-55
2021/04/28 03:20:29;;;;;;;18.23;9.93;;;;;;;3.99;53.67;99997.20;1780348;79;21121;-55
2021/04/28 03:22:57;;;;;;;16.40;9.03;;;;;;;4.00;53.78;100001.66;1765005;80;22380;-54
2021/04/28 03:25:26;;;;;;;14.70;8.33;;;;;;;4.03;53.51;99998.91;1781837;79;21680;-53
2021/04/28 03:27:56;;;;;;;16.82;8.50;;;;;;;4.03;53.34;100001.58;1781960;80;21146;-53
2021/04/28 03:30:24;;;;;;;20.62;9.65;;;;;;;4.05;53.19;100010.45;1749420;80;21143;-53
2021/04/28 03:32:52;;;;;;;14.35;8.90;;;;;;;4.08;53.22;100008.16;1780594;79;20957;-52
2021/04/28 03:35:39;;;;;;;16.37;8.80;;;;;;;4.14;53.12;100007.58;1805348;78;20915;-55
2021/04/28 03:38:12;;;;;;;16.40;9.10;;;;;;;4.10;53.02;100012.58;1776361;79;21105;-52
2021/04/28 03:40:41;;;;;;;16.93;9.13;;;;;;;4.12;53.02;100018.75;1717489;81;21464;-53
2021/04/28 03:43:10;;;;;;;17.77;9.48;;;;;;;4.14;53.00;100022.25;1716785;82;21174;-51
2021/04/28 03:45:40;;;;;;;17.60;9.88;;;;;;;4.18;52.88;100021.75;1711902;81;21010;-52
2021/04/28 03:48:08;;;;;;;24.55;10.78;;;;;;;4.18;52.91;100014.63;1714017;82;21010;-48
2021/04/28 03:50:36;;;;;;;21.33;10.25;;;;;;;4.18;53.03;100022.63;1688641;82;21129;-46
2021/04/28 03:53:06;;;;;;;19.30;11.35;;;;;;;4.18;53.09;100024.42;1717720;82;21213;-46
2021/04/28 03:55:47;;;;;;;20.15;10.55;;;;;;;4.24;53.15;100028.75;1823382;77;23387;-46
2021/04/28 03:58:15;;;;;;;23.83;11.43;;;;;;;4.20;53.12;100031.47;1785321;78;21175;-47
2021/04/28 04:00:43;;;;;;;25.72;11.20;;;;;;;4.22;53.31;100030.59;1746439;81;22277;-47
2021/04/28 04:03:30;;;;;;;20.08;10.75;;;;;;;4.26;53.10;100032.26;1814463;78;20998;-47
2021/04/28 04:06:16;;;;;;;18.20;10.08;;;;;;;4.28;53.11;100038.02;1746319;81;21151;-47
2021/04/28 04:08:52;;;;;;;23.95;11.73;;;;;;;4.32;53.02;100040.17;1747064;81;21014;-52
2021/04/28 04:11:21;;;;;;;20.95;11.55;;;;;;;4.35;53.02;100041.42;1813684;78;21375;-51
2021/04/28 04:13:50;;;;;;;23.65;12.65;;;;;;;4.41;53.16;100050.64;1811930;78;21441;-52
2021/04/28 04:16:18;;;;;;;32.30;17.07;;;;;;;4.54;53.11;100052.62;1746305;82;20989;-53
2021/04/28 04:18:46;;;;;;;35.00;17.45;;;;;;;4.63;53.33;100057.29;1784009;78;21646;-52
2021/04/28 04:21:14;;;;;;;34.95;18.70;;;;;;;4.73;53.50;100056.19;1813775;78;21747;-53
2021/04/28 04:23:45;;;;;;;44.58;21.23;;;;;;;4.83;53.32;100060.00;1744555;81;21144;-48
2021/04/28 04:26:23;;;;;;;48.78;24.72;;;;;;;4.89;53.50;100058.52;1800962;77;22645;-50
2021/04/28 04:29:03;;;;;;;41.98;20.50;;;;;;;4.83;53.86;100060.00;1764730;79;20972;-50
2021/04/28 04:31:43;;;;;;;37.35;19.07;;;;;;;4.83;53.99;100061.34;1761543;79;21392;-49
2021/04/28 04:34:29;;;;;;;34.45;17.42;;;;;;;4.87;53.81;100061.70;1766233;79;21000;-47
2021/04/28 04:37:18;;;;;;;34.67;16.48;;;;;;;4.92;53.46;100061.14;1775306;78;22735;-48
2021/04/28 04:39:55;;;;;;;26.80;14.47;;;;;;;4.89;53.42;100066.54;1749811;80;21006;-47
2021/04/28 04:42:38;;;;;;;22.42;12.65;;;;;;;4.96;53.24;100070.86;1745952;80;21696;-46
2021/04/28 04:45:16;;;;;;;28.15;13.38;;;;;;;5.06;52.76;100071.50;1806815;77;22701;-47
2021/04/28 04:47:44;;;;;;;26.10;14.15;;;;;;;5.03;52.72;100081.83;1756009;79;21553;-47
2021/04/28 04:50:13;;;;;;;24.35;13.95;;;;;;;5.06;52.78;100080.44;1758801;80;21009;-46
2021/04/28 04:52:42;;;;;;;24.27;13.30;;;;;;;5.11;52.68;100088.32;1757773;79;21060;-45
2021/04/28 04:55:11;;;;;;;24.40;12.70;;;;;;;5.15;52.68;100085.55;1758035;80;21060;-46
2021/04/28 04:57:39;;;;;;;19.73;10.48;;;;;;;5.23;52.62;100090.28;1758649;79;21045;-47
2021/04/28 05:00:08;;;;;;;16.15;10.93;;;;;;;5.30;52.22;100088.80;1760264;79;20982;-50
2021/04/28 05:02:36;;;;;;;18.42;10.18;;;;;;;5.39;51.91;100092.59;1758262;79;21390;-48
2021/04/28 05:05:06;;;;;;;15.80;9.10;;;;;;;5.46;51.76;100099.09;1758637;79;20997;-48
2021/04/28 05:07:36;;;;;;;13.85;8.00;;;;;;;5.50;51.56;100098.11;1755042;79;21545;-49
2021/04/28 05:10:06;;;;;;;15.38;7.85;;;;;;;5.57;51.32;100103.30;1758083;79;21671;-51
2021/04/28 05:12:34;;;;;;;12.78;7.55;;;;;;;5.60;50.90;100106.80;1756094;79;21115;-49
2021/04/28 05:15:02;;;;;;;11.80;7.35;;;;;;;5.64;50.94;100107.11;1755254;80;21367;-50
2021/04/28 05:17:30;;;;;;;14.98;8.48;;;;;;;5.68;50.85;100107.47;1726261;80;21176;-53
2021/04/28 05:19:59;;;;;;;17.57;9.08;;;;;;;5.71;50.76;100110.09;1756015;79;21736;-50
2021/04/28 05:22:27;;;;;;;13.95;8.93;;;;;;;5.76;50.76;100108.17;1754280;79;21458;-51
2021/04/28 05:25:06;;;;;;;15.68;8.13;;;;;;;5.86;50.83;100107.92;1759460;79;22811;-51
2021/04/28 05:27:35;;;;;;;14.37;7.37;;;;;;;5.86;50.74;100112.84;1728464;81;21006;-51
2021/04/28 05:30:05;;;;;;;15.35;8.15;;;;;;;5.92;50.69;100122.55;1701801;81;21842;-51
2021/04/28 05:32:33;;;;;;;10.70;7.17;;;;;;;6.00;50.59;100121.87;1707352;80;21046;-52
2021/04/28 05:35:01;;;;;;;12.70;7.40;;;;;;;6.07;50.41;100124.80;1696350;81;21056;-51
2021/04/28 05:37:29;;;;;;;13.88;7.60;;;;;;;6.12;50.40;100126.91;1725009;81;22089;-51
2021/04/28 05:39:58;;;;;;;17.42;8.58;;;;;;;6.18;50.37;100129.88;1724222;81;21034;-51
2021/04/28 05:42:26;;;;;;;13.60;8.68;;;;;;;6.22;50.28;100128.42;1729268;81;21376;-50
2021/04/28 05:44:54;;;;;;;9.40;6.92;;;;;;;6.28;50.19;100136.33;1726077;81;21551;-52
2021/04/28 05:47:22;;;;;;;9.55;6.83;;;;;;;6.35;50.16;100136.16;1697299;81;21029;-52
2021/04/28 05:49:51;;;;;;;11.25;6.28;;;;;;;6.41;49.93;100138.66;1725957;81;20982;-52
2021/04/28 05:52:20;;;;;;;8.48;5.60;;;;;;;6.47;49.17;100141.17;1729104;80;21143;-53
2021/04/28 05:54:48;;;;;;;7.30;5.08;;;;;;;6.53;48.52;100146.36;1727073;80;21351;-53
2021/04/28 05:57:18;;;;;;;12.95;5.70;;;;;;;6.56;48.08;100146.28;1699369;82;21227;-52
2021/04/28 05:59:46;;;;;;;8.65;5.47;;;;;;;6.62;47.88;100146.11;1728089;80;21585;-54
2021/04/28 06:02:15;;;;;;;10.32;5.50;;;;;;;6.70;47.94;100149.44;1701224;81;21104;-52
2021/04/28 06:04:43;;;;;;;6.40;4.22;;;;;;;6.78;47.83;100148.78;1677057;81;21017;-54
2021/04/28 06:07:10;;;;;;;4.90;3.05;;;;;;;6.81;46.71;100150.02;1725963;81;21204;-53
2021/04/28 06:09:39;;;;;;;5.05;2.98;;;;;;;6.85;45.25;100149.94;1730011;80;21414;-52
2021/04/28 06:12:07;;;;;;;6.12;3.47;;;;;;;6.89;44.60;100156.98;1728662;81;21509;-52
2021/04/28 06:14:35;;;;;;;4.28;2.87;;;;;;;6.92;44.54;100152.85;1726612;81;21574;-52
2021/04/28 06:17:06;;;;;;;3.98;3.37;;;;;;;6.93;44.42;100155.97;1726622;81;21041;-52
2021/04/28 06:19:34;;;;;;;14.65;8.58;;;;;;;6.97;44.57;100154.94;1726939;81;22380;-53
2021/04/28 06:22:02;;;;;;;5.80;4.40;;;;;;;7.00;44.40;100160.22;1697805;81;21041;-54
2021/04/28 06:24:32;;;;;;;7.17;4.03;;;;;;;7.04;44.31;100160.56;1737027;80;21002;-53
2021/04/28 06:27:00;;;;;;;6.03;3.80;;;;;;;7.07;44.15;100160.45;1734252;80;21515;-53
2021/04/28 06:29:28;;;;;;;4.90;3.62;;;;;;;7.09;44.30;100159.97;1733176;80;20998;-56
2021/04/28 06:31:57;;;;;;;5.67;3.95;;;;;;;7.14;44.28;100166.08;1733744;80;21414;-54
2021/04/28 06:34:26;;;;;;;9.93;5.60;;;;;;;7.18;44.24;100163.69;1733181;80;21005;-53
2021/04/28 06:36:55;;;;;;;6.10;4.53;;;;;;;7.23;44.22;100152.36;1732434;81;21130;-53
2021/04/28 06:39:23;;;;;;;9.28;4.00;;;;;;;7.29;43.88;100153.52;1729853;80;21613;-53
2021/04/28 06:41:51;;;;;;;7.30;4.22;;;;;;;7.35;43.82;100158.72;1728186;81;21120;-52
2021/04/28 06:44:19;;;;;;;8.83;3.70;;;;;;;7.47;43.62;100153.90;1730780;81;21388;-52
2021/04/28 06:46:47;;;;;;;6.05;3.37;;;;;;;7.55;43.09;100161.23;1731218;81;21159;-58
2021/04/28 06:49:15;;;;;;;4.85;3.60;;;;;;;7.61;43.00;100161.03;1729476;80;21144;-52
2021/04/28 06:51:43;;;;;;;5.35;3.55;;;;;;;7.64;43.06;100161.42;1729942;80;21077;-55
2021/04/28 06:54:11;;;;;;;6.62;3.77;;;;;;;7.68;42.93;100165.30;1731777;80;21014;-55
2021/04/28 06:56:41;;;;;;;5.72;3.72;;;;;;;7.73;42.95;100160.67;1729587;81;21505;-55
2021/04/28 06:59:10;;;;;;;4.90;3.58;;;;;;;7.81;42.74;100161.28;1728465;80;21740;-54
2021/04/28 07:01:37;;;;;;;4.28;3.58;;;;;;;7.94;42.36;100159.56;1732931;81;21144;-52
2021/04/28 07:04:07;;;;;;;7.72;4.65;;;;;;;8.04;42.16;100166.36;1733589;80;21127;-53
2021/04/28 07:06:36;;;;;;;8.75;5.53;;;;;;;8.14;42.13;100167.80;1731975;80;21118;-53
2021/04/28 07:09:05;;;;;;;18.00;8.78;;;;;;;8.23;41.77;100170.66;1732577;80;21400;-54
2021/04/28 07:11:34;;;;;;;13.78;7.78;;;;;;;8.27;41.50;100167.83;1735131;80;21140;-52
2021/04/28 07:14:02;;;;;;;8.55;5.35;;;;;;;8.29;41.33;100168.63;1732585;80;21025;-54
2021/04/28 07:16:30;;;;;;;9.40;4.60;;;;;;;8.30;41.51;100170.38;1735336;81;21562;-55
2021/04/28 07:18:58;;;;;;;9.43;4.70;;;;;;;8.36;41.31;100175.61;1736351;80;21163;-54
2021/04/28 07:21:26;;;;;;;10.13;4.00;;;;;;;8.46;41.30;100175.27;1729108;81;21304;-55
2021/04/28 07:23:54;;;;;;;7.22;4.35;;;;;;;8.54;40.81;100181.27;1729051;80;21569;-55
2021/04/28 07:26:23;;;;;;;8.63;4.58;;;;;;;8.54;40.86;100179.45;1727799;80;21082;-55
2021/04/28 07:28:51;;;;;;;7.47;4.10;;;;;;;8.54;40.34;100175.89;1728636;80;21235;-58
2021/04/28 07:31:19;;;;;;;8.63;4.90;;;;;;;8.52;40.22;100173.27;1726800;80;21137;-55
2021/04/28 07:33:48;;;;;;;6.97;4.20;;;;;;;8.50;40.08;100173.77;1729644;80;21382;-57
2021/04/28 07:36:17;;;;;;;6.87;3.92;;;;;;;8.51;40.11;100170.61;1730370;81;21526;-54
2021/04/28 07:38:45;;;;;;;6.80;3.85;;;;;;;8.56;40.19;100171.33;1731947;80;21188;-57
2021/04/28 07:41:13;;;;;;;9.93;6.62;;;;;;;8.67;39.68;100159.72;1729142;81;21538;-56
2021/04/28 07:43:41;;;;;;;10.28;5.28;;;;;;;8.74;38.91;100165.31;1727627;80;21144;-54
2021/04/28 07:46:09;;;;;;;7.62;4.62;;;;;;;8.82;39.02;100157.83;1726460;81;21377;-55
2021/04/28 07:48:37;;;;;;;7.58;5.00;;;;;;;8.90;38.95;100169.20;1728307;80;21026;-55
2021/04/28 07:51:07;;;;;;;7.95;3.92;;;;;;;8.98;38.96;100170.72;1726831;80;21137;-55
2021/04/28 07:53:35;;;;;;;5.83;3.80;;;;;;;9.04;38.26;100173.17;1728785;80;20974;-57
2021/04/28 07:56:04;;;;;;;5.67;3.90;;;;;;;9.05;37.68;100167.73;1726634;81;21136;-59
2021/04/28 07:58:32;;;;;;;7.85;3.60;;;;;;;9.04;37.70;100175.87;1728326;80;22240;-57
2021/04/28 08:01:00;;;;;;;8.55;3.77;;;;;;;9.05;38.02;100171.77;1727714;81;21161;-57
2021/04/28 08:03:27;;;;;;;6.03;4.05;;;;;;;9.07;38.08;100163.66;1729873;80;21030;-56
2021/04/28 08:05:55;;;;;;;10.45;3.60;;;;;;;9.14;38.08;100175.47;1728325;80;21133;-57
2021/04/28 08:08:23;;;;;;;6.70;3.55;;;;;;;9.19;37.42;100165.87;1730094;80;21514;-54
2021/04/28 08:10:51;;;;;;;7.40;4.12;;;;;;;9.23;37.56;100166.17;1726518;81;21373;-55
2021/04/28 08:13:19;;;;;;;6.40;3.65;;;;;;;9.24;37.29;100169.75;1729566;80;21606;-55
2021/04/28 08:15:47;;;;;;;10.05;4.03;;;;;;;9.20;37.38;100166.28;1726267;81;21554;-54
2021/04/28 08:18:16;;;;;;;11.10;4.20;;;;;;;9.24;37.56;100177.81;1724831;80;21034;-54
2021/04/28 08:20:45;;;;;;;6.92;4.03;;;;;;;9.26;37.24;100174.12;1736013;81;21676;-56
2021/04/28 08:23:13;;;;;;;6.05;3.90;;;;;;;9.24;36.92;100178.69;1725891;81;21362;-54
2021/04/28 08:25:42;;;;;;;6.53;4.10;;;;;;;9.19;36.95;100167.22;1733721;81;21172;-56
2021/04/28 08:28:10;;;;;;;9.20;3.65;;;;;;;9.19;37.16;100171.26;1733784;81;21930;-55
2021/04/28 08:30:39;;;;;;;10.28;4.22;;;;;;;9.23;37.00;100166.17;1699955;83;21168;-56
2021/04/28 08:33:09;;;;;;;6.03;3.50;;;;;;;9.24;36.81;100167.92;1699616;83;21033;-55
2021/04/28 08:35:37;;;;;;;6.72;3.72;;;;;;;9.27;36.93;100160.19;1699904;83;22269;-56
2021/04/28 08:38:05;;;;;;;7.03;3.90;;;;;;;9.31;36.80;100172.13;1706807;83;21030;-56
2021/04/28 08:40:34;;;;;;;6.37;3.62;;;;;;;9.35;36.68;100169.73;1698698;83;21180;-56
2021/04/28 08:43:03;;;;;;;6.33;3.47;;;;;;;9.39;36.34;100167.34;1701040;81;21171;-55
2021/04/28 08:45:32;;;;;;;5.60;3.35;;;;;;;9.42;35.97;100160.47;1683160;84;21016;-56
2021/04/28 08:48:00;;;;;;;8.98;3.75;;;;;;;9.44;36.19;100160.44;1681099;84;22322;-55
2021/04/28 08:50:28;;;;;;;7.87;3.92;;;;;;;9.52;36.46;100164.16;1680862;84;21162;-54
2021/04/28 08:52:56;;;;;;;23.07;11.35;;;;;;;9.65;36.14;100160.94;1680830;84;21165;-55
2021/04/28 08:55:24;;;;;;;11.88;6.65;;;;;;;9.77;35.90;100156.86;1696885;83;21273;-55
2021/04/28 08:57:53;;;;;;;8.80;4.15;;;;;;;9.85;35.58;100161.45;1679556;84;21140;-55
2021/04/28 09:00:22;;;;;;;5.33;4.00;;;;;;;9.84;35.16;100154.80;1686031;84;21379;-54
2021/04/28 09:02:54;;;;;;;6.65;3.50;;;;;;;9.77;35.23;100159.56;1691294;84;21188;-53
2021/04/28 09:05:23;;;;;;;8.30;3.30;;;;;;;9.73;34.44;100157.92;1699523;82;21271;-55
2021/04/28 09:07:53;;;;;;;4.28;3.17;;;;;;;9.70;34.47;100156.25;1698631;82;21591;-55
2021/04/28 09:10:23;;;;;;;5.58;3.37;;;;;;;9.70;34.57;100151.33;1692488;82;21124;-56
2021/04/28 09:13:02;;;;;;;8.85;3.52;;;;;;;9.71;34.58;100152.61;1687353;83;21388;-54
2021/04/28 09:15:48;;;;;;;4.70;3.17;;;;;;;9.74;34.89;100146.20;1687218;82;21149;-54
2021/04/28 09:18:18;;;;;;;7.20;3.75;;;;;;;9.84;34.41;100143.55;1688513;82;21741;-56
2021/04/28 09:21:01;;;;;;;7.83;3.22;;;;;;;9.86;34.71;100139.47;1690606;82;21562;-51
2021/04/28 09:23:36;;;;;;;4.78;2.85;;;;;;;9.93;34.35;100143.65;1692805;83;21011;-51
2021/04/28 09:26:20;;;;;;;7.47;3.60;;;;;;;9.95;34.62;100137.23;1731040;81;21222;-49
2021/04/28 09:29:06;;;;;;;6.13;3.50;;;;;;;10.09;34.78;100141.20;1839623;74;27531;-50
2021/04/28 09:31:36;;;;;;;5.65;3.60;;;;;;;10.18;34.30;100143.51;1811620;77;20965;-50
2021/04/28 09:34:05;;;;;;;6.80;3.50;;;;;;;10.20;34.13;100145.19;1800829;77;21903;-51
2021/04/28 09:36:37;;;;;;;6.70;3.10;;;;;;;10.22;34.52;100145.98;1763776;79;21034;-50
2021/04/28 09:39:11;;;;;;;5.37;3.37;;;;;;;10.31;34.48;100146.11;1764900;78;20985;-49
2021/04/28 09:41:42;;;;;;;5.30;3.15;;;;;;;10.40;34.03;100138.11;1764280;79;21684;-50
2021/04/28 09:44:23;;;;;;;5.28;3.20;;;;;;;10.43;33.94;100140.66;1763816;79;21598;-50
2021/04/28 09:47:07;;;;;;;7.15;2.92;;;;;;;10.45;33.50;100138.31;1772024;78;22376;-51
2021/04/28 09:49:56;;;;;;;8.40;3.15;;;;;;;10.44;33.54;100135.22;1771838;78;21007;-49
2021/04/28 09:52:34;;;;;;;4.58;3.02;;;;;;;10.43;33.76;100141.52;1760247;78;21690;-49
2021/04/28 09:55:11;;;;;;;6.37;3.30;;;;;;;10.49;34.11;100135.89;1764625;78;21097;-50
2021/04/28 09:57:48;;;;;;;5.15;3.60;;;;;;;10.57;33.67;100123.88;1758999;79;21140;-50
2021/04/28 10:02:58;;;;;;;6.05;3.10;;;;;;;10.73;33.07;100127.64;1802417;76;22807;-51
2021/04/28 10:05:34;;;;;;;4.30;2.98;;;;;;;10.71;32.92;100122.80;1793620;78;21097;-52
2021/04/28 10:08:19;;;;;;;7.37;3.58;;;;;;;10.75;32.95;100121.70;1754317;79;21353;-46
2021/04/28 10:10:50;;;;;;;4.78;3.45;;;;;;;10.86;33.12;100123.44;1754999;79;20970;-46
2021/04/28 10:13:18;;;;;;;4.90;3.10;;;;;;;10.86;33.12;100123.44;1755355;79;21132;-48
2021/04/28 10:15:46;;;;;;;4.00;2.75;;;;;;;10.91;33.05;100120.05;1751718;79;20998;-48
2021/04/28 10:18:16;;;;;;;5.10;3.08;;;;;;;10.97;32.77;100117.55;1751837;79;21606;-47
2021/04/28 10:20:45;;;;;;;6.62;3.10;;;;;;;10.99;31.86;100113.84;1755132;79;21494;-49
2021/04/28 10:23:14;;;;;;;4.30;3.22;;;;;;;10.96;32.09;100115.32;1750964;79;21053;-48
2021/04/28 10:25:48;;;;;;;4.75;2.92;;;;;;;10.94;31.39;100117.23;1753923;79;21153;-49
2021/04/28 10:28:18;;;;;;;7.03;3.62;;;;;;;10.89;32.00;100103.55;1750106;79;21597;-47
2021/04/28 10:30:48;;;;;;;7.35;3.33;;;;;;;10.93;31.83;100110.56;1749325;79;21176;-47
2021/04/28 10:33:28;;;;;;;6.75;3.33;;;;;;;10.96;31.89;100103.18;1752835;79;22226;-48
2021/04/28 10:35:57;;;;;;;6.40;4.05;;;;;;;11.01;32.00;100103.84;1749360;79;21787;-47
2021/04/28 10:38:26;;;;;;;6.20;3.40;;;;;;;11.11;31.96;100100.72;1750133;79;21148;-46
2021/04/28 10:40:55;;;;;;;8.35;3.52;;;;;;;11.16;32.07;100104.09;1754631;79;21665;-49
2021/04/28 10:43:37;;;;;;;4.87;3.80;;;;;;;11.22;31.88;100098.39;1754794;79;21547;-48
2021/04/28 10:46:20;;;;;;;4.97;3.45;;;;;;;11.27;32.09;100107.15;1750793;79;22249;-46
2021/04/28 10:48:51;;;;;;;7.50;4.00;;;;;;;11.35;32.58;100104.98;1747660;80;21013;-46
2021/04/28 10:51:38;;;;;;;7.05;4.20;;;;;;;11.47;32.37;100095.41;1754215;79;21111;-48
2021/04/28 10:54:23;;;;;;;9.30;4.22;;;;;;;11.51;32.58;100092.48;1752516;79;21542;-48
2021/04/28 10:57:05;;;;;;;11.95;4.50;;;;;;;11.55;32.79;100091.36;1753123;79;21562;-47
2021/04/28 10:59:42;;;;;;;6.35;3.95;;;;;;;11.62;32.74;100096.48;1754072;79;21373;-47
2021/04/28 11:02:12;;;;;;;25.97;5.33;;;;;;;11.65;32.10;100093.62;1749525;79;21140;-48
2021/04/28 11:04:47;;;;;;;9.98;4.00;;;;;;;11.58;32.27;100089.48;1747017;79;21128;-47
2021/04/28 11:07:42;;;;;;;6.30;3.58;;;;;;;11.57;32.49;100087.73;1745893;80;21112;-46
2021/04/28 11:10:32;;;;;;;8.28;3.95;;;;;;;11.60;32.54;100090.27;1748164;79;20967;-47
2021/04/28 11:13:16;;;;;;;5.55;4.00;;;;;;;11.63;32.30;100075.27;1746258;80;21377;-48
2021/04/28 11:15:52;;;;;;;8.20;3.80;;;;;;;11.58;32.47;100079.55;1749575;79;21700;-47
2021/04/28 11:18:36;;;;;;;6.20;3.42;;;;;;;11.59;32.76;100074.53;1748066;79;21121;-49
2021/04/28 11:21:23;;;;;;;5.87;4.00;;;;;;;11.68;32.58;100076.80;1743017;79;21232;-47
2021/04/28 11:24:14;;;;;;;8.25;3.90;;;;;;;11.74;32.59;100077.83;1746345;79;20998;-48
2021/04/28 11:26:49;;;;;;;5.55;3.58;;;;;;;11.81;32.57;100081.09;1742917;79;21010;-47
2021/04/28 11:29:20;;;;;;;6.37;3.95;;;;;;;11.87;32.50;100082.17;1746891;79;21203;-50
2021/04/28 11:31:53;;;;;;;7.17;4.60;;;;;;;11.84;31.80;100078.29;1744700;80;20994;-49
2021/04/28 11:34:34;;;;;;;7.47;4.12;;;;;;;11.69;31.99;100068.20;1743611;79;21006;-53
2021/04/28 11:37:05;;;;;;;8.53;3.58;;;;;;;11.62;32.20;100069.48;1744654;79;20982;-51
2021/04/28 11:39:44;;;;;;;5.75;4.45;;;;;;;11.62;32.20;100061.37;1750102;79;21362;-49
2021/04/28 11:42:20;;;;;;;9.35;4.08;;;;;;;11.63;32.39;100059.06;1743621;79;21514;-49
2021/04/28 11:44:52;;;;;;;7.80;3.72;;;;;;;11.68;32.43;100063.77;1742773;79;21117;-52
2021/04/28 11:47:25;;;;;;;9.65;3.37;;;;;;;11.77;32.14;100071.38;1744527;79;21168;-51
2021/04/28 11:49:55;;;;;;;6.35;3.27;;;;;;;11.84;31.95;100064.77;1743765;80;21486;-50
2021/04/28 11:52:25;;;;;;;7.85;3.50;;;;;;;11.89;31.77;100065.42;1747645;79;21372;-50